createdAt,value
2019-02-15T00:01:01.629Z,5.69
2019-02-15T00:03:32.117Z,5.69
2019-02-15T00:06:02.611Z,5.77
2019-02-15T00:08:33.135Z,5.72
2019-02-15T00:11:03.627Z,5.79
2019-02-15T00:13:34.225Z,5.84
2019-02-15T00:16:04.768Z,5.89
2019-02-15T00:18:41.482Z,5.92
2019-02-15T00:21:26.295Z,5.96
2019-02-15T00:23:56.775Z,5.99
2019-02-15T00:26:27.226Z,5.92
2019-02-15T00:28:57.676Z,5.85
2019-02-15T00:31:28.167Z,5.86
2019-02-15T00:33:58.611Z,5.66
2019-02-15T00:36:29.828Z,5.51
2019-02-15T00:39:00.262Z,5.49
2019-02-15T00:41:30.721Z,5.64
2019-02-15T00:44:01.215Z,5.70
2019-02-15T00:46:50.519Z,5.74
2019-02-15T00:49:31.120Z,5.78
2019-02-15T00:52:26.472Z,5.65
2019-02-15T00:55:18.581Z,5.81
2019-02-15T00:58:17.171Z,5.92
2019-02-15T01:00:58.870Z,6.01
2019-02-15T01:03:57.380Z,5.95
2019-02-15T01:06:45.381Z,5.93
2019-02-15T01:09:34.666Z,5.96
2019-02-15T01:12:14.903Z,6.05
2019-02-15T01:14:45.353Z,5.98
2019-02-15T01:17:15.801Z,5.95
2019-02-15T01:19:46.297Z,6.08
2019-02-15T01:22:16.749Z,6.15
2019-02-15T01:24:47.253Z,6.08
2019-02-15T01:27:51.596Z,6.11
2019-02-15T01:30:40.123Z,6.26
2019-02-15T01:33:28.028Z,6.09
2019-02-15T01:36:23.437Z,6.24
2019-02-15T01:39:09.619Z,6.26
2019-02-15T01:42:04.995Z,6.36
2019-02-15T01:44:57.102Z,6.38
2019-02-15T01:47:34.687Z,6.33
2019-02-15T01:50:05.538Z,6.29
2019-02-15T01:52:36.030Z,6.32
2019-02-15T01:55:06.755Z,6.28
2019-02-15T01:57:37.210Z,6.26
2019-02-15T02:00:10.064Z,6.34
2019-02-15T02:02:40.564Z,6.38
2019-02-15T02:05:11.099Z,6.22
2019-02-15T02:07:41.601Z,6.28
2019-02-15T02:10:12.683Z,6.26
2019-02-15T02:12:43.146Z,6.28
2019-02-15T02:15:13.723Z,6.24
2019-02-15T02:17:44.171Z,6.41
2019-02-15T02:20:14.799Z,6.38
2019-02-15T02:22:45.244Z,6.15
2019-02-15T02:25:15.762Z,6.15
2019-02-15T02:27:46.218Z,6.08
2019-02-15T02:30:16.816Z,6.04
2019-02-15T02:32:47.277Z,6.07
2019-02-15T02:35:17.736Z,6.13
2019-02-15T02:37:48.246Z,6.15
2019-02-15T02:40:18.719Z,6.00
2019-02-15T02:42:49.215Z,6.26
2019-02-15T02:45:19.728Z,6.36
2019-02-15T02:47:50.334Z,6.38
2019-02-15T02:50:20.790Z,6.38
2019-02-15T02:52:51.312Z,6.50
2019-02-15T02:55:21.769Z,6.58
2019-02-15T02:57:52.262Z,6.39
2019-02-15T03:00:22.721Z,6.26
2019-02-15T03:02:53.176Z,6.45
2019-02-15T03:05:23.697Z,6.50
2019-02-15T03:07:54.198Z,6.52
2019-02-15T03:10:24.757Z,6.47
2019-02-15T03:12:55.263Z,6.39
2019-02-15T03:15:25.721Z,6.31
2019-02-15T03:17:56.243Z,6.38
2019-02-15T03:20:31.183Z,6.35
2019-02-15T03:22:58.883Z,6.27
2019-02-15T03:25:29.395Z,6.19
2019-02-15T03:27:59.919Z,6.23
2019-02-15T03:30:30.432Z,6.12
2019-02-15T03:33:00.958Z,6.10
2019-02-15T03:35:31.481Z,6.08
2019-02-15T03:38:19.235Z,6.06
2019-02-15T03:40:52.944Z,6.14
2019-02-15T03:43:23.418Z,5.75
2019-02-15T03:45:54.076Z,5.87
2019-02-15T03:48:24.614Z,5.89
2019-02-15T03:50:55.242Z,5.90
2019-02-15T03:53:25.756Z,6.03
2019-02-15T03:55:56.478Z,6.06
2019-02-15T03:58:26.943Z,5.73
2019-02-15T04:00:57.572Z,5.79
2019-02-15T04:03:30.960Z,5.81
2019-02-15T04:06:01.445Z,5.78
2019-02-15T04:08:31.952Z,5.76
2019-02-15T04:11:02.431Z,5.69
2019-02-15T04:13:32.949Z,5.60
2019-02-15T04:16:03.470Z,5.69
2019-02-15T04:18:33.935Z,5.63
2019-02-15T04:21:04.430Z,5.55
2019-02-15T04:23:34.968Z,5.85
2019-02-15T04:26:05.449Z,5.85
2019-02-15T04:28:35.956Z,5.87
2019-02-15T04:31:06.475Z,6.01
2019-02-15T04:33:36.990Z,5.90
2019-02-15T04:36:07.622Z,5.97
2019-02-15T04:38:38.118Z,5.75
2019-02-15T04:41:08.639Z,5.83
2019-02-15T04:43:39.160Z,5.72
2019-02-15T04:46:09.624Z,5.72
2019-02-15T04:48:40.134Z,5.70
2019-02-15T04:51:10.653Z,5.68
2019-02-15T04:53:41.112Z,5.68
2019-02-15T04:56:11.680Z,5.60
2019-02-15T04:58:42.197Z,5.59
2019-02-15T05:01:12.665Z,5.60
2019-02-15T05:03:43.177Z,5.50
2019-02-15T05:06:13.664Z,5.61
2019-02-15T05:08:44.116Z,5.77
2019-02-15T05:11:14.635Z,5.72
2019-02-15T05:13:45.111Z,5.66
2019-02-15T05:16:15.633Z,5.64
2019-02-15T05:18:46.141Z,5.66
2019-02-15T05:21:16.627Z,5.81
2019-02-15T05:23:47.145Z,5.69
2019-02-15T05:26:17.609Z,5.74
2019-02-15T05:28:48.107Z,5.82
2019-02-15T05:31:18.612Z,5.85
2019-02-15T05:33:49.126Z,5.87
2019-02-15T05:36:19.564Z,5.82
2019-02-15T05:38:50.046Z,5.89
2019-02-15T05:41:20.543Z,5.81
2019-02-15T05:43:51.016Z,5.65
2019-02-15T05:46:21.533Z,5.72
2019-02-15T05:48:51.995Z,5.77
2019-02-15T05:51:22.470Z,5.89
2019-02-15T05:53:53.147Z,5.96
2019-02-15T05:56:23.661Z,6.05
2019-02-15T05:58:54.205Z,6.10
2019-02-15T06:01:25.905Z,6.08
2019-02-15T06:03:56.374Z,6.18
2019-02-15T06:06:26.903Z,6.28
2019-02-15T06:08:57.394Z,6.33
2019-02-15T06:11:27.893Z,6.32
2019-02-15T06:13:58.417Z,6.36
2019-02-15T06:16:28.865Z,6.37
2019-02-15T06:18:59.336Z,6.43
2019-02-15T06:21:29.849Z,6.57
2019-02-15T06:24:00.365Z,6.64
2019-02-15T06:26:30.837Z,6.53
2019-02-15T06:29:01.346Z,6.44
2019-02-15T06:31:31.838Z,6.62
2019-02-15T06:34:02.365Z,6.54
2019-02-15T06:36:36.142Z,6.58
2019-02-15T06:39:08.800Z,6.51
2019-02-15T06:41:39.359Z,5.96
2019-02-15T06:44:09.872Z,6.68
2019-02-15T06:46:40.527Z,6.61
2019-02-15T06:49:11.061Z,6.70
2019-02-15T06:51:41.540Z,6.67
2019-02-15T06:54:12.080Z,6.80
2019-02-15T06:56:42.607Z,6.88
2019-02-15T06:59:35.161Z,7.00
2019-02-15T07:02:28.986Z,6.86
2019-02-15T07:05:30.589Z,6.97
2019-02-15T07:08:01.133Z,6.96
2019-02-15T07:10:31.678Z,7.01
2019-02-15T07:13:02.183Z,7.08
2019-02-15T07:15:33.978Z,7.22
2019-02-15T07:18:04.598Z,7.32
2019-02-15T07:20:35.047Z,7.31
2019-02-15T07:23:05.508Z,7.29
2019-02-15T07:25:36.069Z,7.47
2019-02-15T07:28:06.546Z,7.52
2019-02-15T07:30:37.060Z,7.60
2019-02-15T07:33:07.610Z,7.41
2019-02-15T07:35:38.064Z,7.31
2019-02-15T07:38:08.614Z,6.62
2019-02-15T07:40:39.064Z,7.16
2019-02-15T07:43:09.683Z,7.34
2019-02-15T07:45:42.903Z,7.18
2019-02-15T07:48:12.431Z,6.56
2019-02-15T07:50:42.998Z,6.66
2019-02-15T07:53:13.512Z,6.71
2019-02-15T07:55:43.977Z,6.85
2019-02-15T07:58:14.495Z,6.82
2019-02-15T08:00:45.022Z,6.79
2019-02-15T08:03:15.479Z,6.65
2019-02-15T08:05:46.002Z,6.77
2019-02-15T08:08:16.490Z,6.41
2019-02-15T08:10:46.983Z,6.44
2019-02-15T08:13:17.451Z,6.31
2019-02-15T08:15:52.128Z,6.33
2019-02-15T08:18:20.128Z,6.54
2019-02-15T08:20:50.629Z,6.61
2019-02-15T08:23:21.151Z,6.62
2019-02-15T08:25:51.632Z,6.72
2019-02-15T08:28:22.161Z,6.83
2019-02-15T08:30:52.659Z,6.89
2019-02-15T08:33:23.212Z,6.80
2019-02-15T08:35:53.690Z,7.03
2019-02-15T08:38:24.209Z,7.14
2019-02-15T08:40:54.683Z,7.30
2019-02-15T08:43:25.246Z,7.35
2019-02-15T08:46:00.685Z,7.49
2019-02-15T08:48:27.936Z,7.48
2019-02-15T08:50:58.448Z,7.56
2019-02-15T08:53:28.916Z,7.57
2019-02-15T08:55:59.424Z,7.43
2019-02-15T08:58:29.984Z,7.51
2019-02-15T09:01:00.493Z,7.64
2019-02-15T09:03:31.131Z,7.73
2019-02-15T09:06:01.636Z,7.59
2019-02-15T09:08:32.096Z,7.45
2019-02-15T09:11:02.631Z,7.30
2019-02-15T09:13:33.272Z,7.16
2019-02-15T09:16:10.101Z,7.36
2019-02-15T09:18:35.988Z,7.41
2019-02-15T09:21:06.495Z,7.37
2019-02-15T09:23:36.964Z,7.47
2019-02-15T09:26:07.474Z,7.51
2019-02-15T09:28:44.772Z,7.61
2019-02-15T09:31:15.327Z,7.40
2019-02-15T09:33:45.807Z,7.56
2019-02-15T09:36:16.342Z,7.67
2019-02-15T09:38:47.044Z,7.86
2019-02-15T09:41:17.512Z,8.02
2019-02-15T09:43:48.076Z,7.90
2019-02-15T09:46:20.263Z,7.96
2019-02-15T09:48:50.862Z,8.01
2019-02-15T09:51:21.324Z,8.30
2019-02-15T09:53:51.902Z,8.42
2019-02-15T09:56:22.427Z,8.60
2019-02-15T09:58:53.024Z,8.60
2019-02-15T10:01:23.705Z,8.45
2019-02-15T10:03:55.304Z,8.63
2019-02-15T10:06:25.839Z,8.73
2019-02-15T10:08:56.344Z,8.88
2019-02-15T10:11:26.826Z,8.84
2019-02-15T10:13:57.440Z,8.93
2019-02-15T10:16:30.828Z,9.01
2019-02-15T10:19:00.140Z,9.09
2019-02-15T10:21:30.615Z,9.04
2019-02-15T10:24:01.120Z,8.89
2019-02-15T10:26:31.632Z,8.78
2019-02-15T10:29:02.111Z,8.84
2019-02-15T10:31:32.837Z,9.03
2019-02-15T10:34:04.584Z,9.12
2019-02-15T10:36:35.115Z,9.25
2019-02-15T10:39:06.822Z,9.41
2019-02-15T10:41:37.394Z,9.58
2019-02-15T10:44:07.959Z,9.48
2019-02-15T10:46:38.468Z,9.28
2019-02-15T10:49:08.980Z,9.42
2019-02-15T10:51:46.261Z,9.50
2019-02-15T10:54:16.760Z,9.42
2019-02-15T10:56:47.225Z,9.50
2019-02-15T10:59:17.739Z,9.50
2019-02-15T11:01:48.279Z,9.43
2019-02-15T11:04:18.745Z,9.44
2019-02-15T11:06:51.768Z,9.20
2019-02-15T11:09:22.264Z,9.19
2019-02-15T11:11:52.724Z,9.28
2019-02-15T11:14:23.197Z,9.35
2019-02-15T11:16:53.650Z,9.38
2019-02-15T11:19:24.163Z,9.55
2019-02-15T11:21:54.752Z,9.53
2019-02-15T11:24:25.294Z,9.34
2019-02-15T11:26:55.777Z,9.37
2019-02-15T11:29:26.280Z,9.48
2019-02-15T11:31:56.776Z,9.57
2019-02-15T11:34:27.940Z,9.55
2019-02-15T11:36:58.503Z,9.49
2019-02-15T11:39:28.967Z,9.27
2019-02-15T11:41:59.595Z,9.13
2019-02-15T11:44:30.261Z,9.25
2019-02-15T11:47:00.785Z,9.35
2019-02-15T11:49:31.292Z,9.37
2019-02-15T11:52:01.812Z,9.28
2019-02-15T11:54:32.295Z,9.29
2019-02-15T11:57:02.839Z,9.21
2019-02-15T11:59:33.600Z,9.16
2019-02-15T12:02:06.531Z,8.24
2019-02-15T12:04:36.279Z,8.96
2019-02-15T12:07:06.815Z,8.47
2019-02-15T12:09:37.342Z,8.79
2019-02-15T12:12:10.656Z,8.86
2019-02-15T12:14:40.075Z,9.05
2019-02-15T12:17:10.543Z,9.02
2019-02-15T12:19:41.073Z,9.11
2019-02-15T12:22:11.522Z,9.20
2019-02-15T12:24:42.028Z,9.14
2019-02-15T12:27:12.523Z,9.20
2019-02-15T12:29:43.049Z,9.14
2019-02-15T12:32:13.552Z,9.14
2019-02-15T12:34:44.144Z,9.05
2019-02-15T12:37:14.663Z,9.07
2019-02-15T12:39:45.444Z,9.09
2019-02-15T12:42:15.983Z,9.14
2019-02-15T12:44:46.500Z,9.23
2019-02-15T12:47:17.005Z,8.61
2019-02-15T12:49:47.458Z,9.38
2019-02-15T12:52:17.988Z,9.47
2019-02-15T12:54:49.493Z,9.39
2019-02-15T12:57:20.057Z,9.33
2019-02-15T12:59:50.528Z,9.41
2019-02-15T13:02:21.041Z,9.38
2019-02-15T13:04:51.553Z,9.28
2019-02-15T13:07:22.047Z,9.32
2019-02-15T13:09:52.632Z,8.48
2019-02-15T13:12:23.174Z,9.23
2019-02-15T13:14:53.647Z,9.23
2019-02-15T13:17:24.986Z,9.19
2019-02-15T13:19:55.692Z,9.10
2019-02-15T13:22:26.199Z,9.13
2019-02-15T13:24:56.784Z,9.14
2019-02-15T13:27:27.297Z,9.09
2019-02-15T13:29:57.906Z,9.15
2019-02-15T13:32:28.409Z,9.12
2019-02-15T13:34:58.868Z,9.18
2019-02-15T13:37:29.380Z,9.14
2019-02-15T13:39:59.907Z,9.12
2019-02-15T13:42:30.548Z,9.12
2019-02-15T13:45:01.177Z,9.13
2019-02-15T13:47:34.700Z,8.93
2019-02-15T13:50:04.050Z,8.94
2019-02-15T13:52:34.578Z,8.84
2019-02-15T13:55:05.245Z,8.80
2019-02-15T13:57:35.808Z,8.73
2019-02-15T14:00:06.752Z,8.86
2019-02-15T14:02:37.224Z,8.89
2019-02-15T14:05:09.691Z,8.52
2019-02-15T14:07:40.499Z,8.72
2019-02-15T14:10:14.917Z,8.64
2019-02-15T14:12:45.471Z,8.65
2019-02-15T14:15:15.961Z,8.50
2019-02-15T14:17:48.445Z,8.55
2019-02-15T14:20:18.936Z,8.66
2019-02-15T14:22:49.414Z,8.78
2019-02-15T14:25:19.921Z,8.80
2019-02-15T14:27:50.475Z,8.69
2019-02-15T14:30:20.943Z,8.79
2019-02-15T14:32:51.441Z,8.67
2019-02-15T14:35:21.984Z,8.62
2019-02-15T14:37:52.466Z,8.70
2019-02-15T14:40:22.993Z,8.73
2019-02-15T14:42:53.478Z,8.75
2019-02-15T14:45:24.026Z,8.83
2019-02-15T14:47:55.516Z,8.78
2019-02-15T14:50:26.017Z,8.71
2019-02-15T14:52:56.573Z,8.57
2019-02-15T14:55:27.304Z,8.60
2019-02-15T14:57:57.851Z,8.57
2019-02-15T15:00:28.773Z,8.69
2019-02-15T15:02:59.320Z,8.73
2019-02-15T15:05:29.835Z,8.78
2019-02-15T15:08:00.388Z,8.80
2019-02-15T15:10:30.947Z,8.84
2019-02-15T15:13:01.622Z,8.74
2019-02-15T15:15:32.143Z,8.66
2019-02-15T15:18:12.703Z,7.39
2019-02-15T15:20:36.320Z,8.29
2019-02-15T15:23:06.861Z,7.67
2019-02-15T15:25:37.373Z,8.23
2019-02-15T15:28:07.958Z,8.25
2019-02-15T15:30:38.519Z,8.19
2019-02-15T15:33:09.071Z,8.11
2019-02-15T15:35:41.992Z,8.06
2019-02-15T15:38:12.490Z,8.02
2019-02-15T15:40:42.946Z,8.04
2019-02-15T15:43:13.448Z,7.92
2019-02-15T15:45:43.922Z,7.89
2019-02-15T15:48:22.449Z,7.85
2019-02-15T15:50:46.648Z,7.85
2019-02-15T15:53:17.119Z,7.82
2019-02-15T15:55:47.653Z,7.81
2019-02-15T15:58:18.137Z,7.75
2019-02-15T16:00:48.772Z,7.74
2019-02-15T16:03:19.256Z,7.70
2019-02-15T16:05:49.767Z,7.01
2019-02-15T16:08:20.218Z,7.72
2019-02-15T16:10:50.722Z,7.68
2019-02-15T16:13:21.243Z,7.65
2019-02-15T16:15:51.756Z,7.59
2019-02-15T16:18:22.225Z,7.62
2019-02-15T16:20:52.716Z,7.61
2019-02-15T16:23:23.222Z,7.59
2019-02-15T16:25:53.687Z,7.53
2019-02-15T16:28:24.190Z,7.49
2019-02-15T16:30:54.701Z,7.50
2019-02-15T16:33:25.256Z,7.56
2019-02-15T16:35:55.717Z,7.52
2019-02-15T16:38:26.202Z,7.46
2019-02-15T16:40:56.660Z,7.35
2019-02-15T16:43:27.165Z,7.38
2019-02-15T16:45:57.638Z,7.40
2019-02-15T16:48:28.122Z,7.41
2019-02-15T16:50:58.567Z,7.41
2019-02-15T16:53:29.075Z,7.38
2019-02-15T16:55:59.523Z,7.39
2019-02-15T16:58:30.131Z,7.43
2019-02-15T17:01:00.637Z,7.39
2019-02-15T17:03:31.146Z,7.41
2019-02-15T17:06:01.656Z,7.46
2019-02-15T17:08:32.156Z,7.47
2019-02-15T17:11:02.734Z,7.47
2019-02-15T17:13:34.680Z,7.44
2019-02-15T17:16:05.223Z,7.45
2019-02-15T17:18:35.728Z,7.43
2019-02-15T17:21:06.196Z,7.44
2019-02-15T17:23:36.698Z,7.37
2019-02-15T17:26:07.154Z,7.42
2019-02-15T17:28:39.404Z,7.45
2019-02-15T17:31:09.892Z,7.43
2019-02-15T17:33:40.399Z,7.49
2019-02-15T17:36:10.875Z,7.50
2019-02-15T17:38:42.942Z,7.55
2019-02-15T17:41:13.519Z,7.52
2019-02-15T17:43:43.972Z,7.57
2019-02-15T17:46:14.468Z,7.59
2019-02-15T17:48:44.929Z,7.48
2019-02-15T17:51:15.381Z,7.50
2019-02-15T17:53:45.883Z,7.39
2019-02-15T17:56:17.143Z,7.39
2019-02-15T17:58:47.658Z,7.36
2019-02-15T18:01:18.118Z,7.37
2019-02-15T18:03:48.617Z,7.39
2019-02-15T18:06:19.080Z,7.37
2019-02-15T18:08:49.600Z,7.40
2019-02-15T18:11:20.059Z,7.42
2019-02-15T18:13:50.572Z,7.45
2019-02-15T18:16:21.029Z,7.47
2019-02-15T18:18:51.495Z,7.50
2019-02-15T18:21:21.984Z,7.51
2019-02-15T18:23:52.456Z,7.52
2019-02-15T18:26:22.965Z,7.45
2019-02-15T18:28:53.464Z,7.48
2019-02-15T18:31:23.933Z,7.50
2019-02-15T18:33:54.435Z,7.50
2019-02-15T18:36:24.891Z,7.50
2019-02-15T18:38:55.406Z,6.80
2019-02-15T18:41:25.852Z,7.53
2019-02-15T18:43:56.304Z,7.53
2019-02-15T18:46:26.796Z,7.52
2019-02-15T18:48:57.247Z,7.49
2019-02-15T18:51:27.801Z,7.49
2019-02-15T18:53:58.257Z,7.48
2019-02-15T18:56:28.776Z,7.51
2019-02-15T18:58:59.242Z,7.47
2019-02-15T19:01:29.755Z,7.49
2019-02-15T19:04:00.274Z,7.52
2019-02-15T19:06:30.719Z,7.55
2019-02-15T19:09:01.226Z,7.52
2019-02-15T19:11:31.757Z,7.51
2019-02-15T19:14:04.768Z,7.31
2019-02-15T19:16:34.372Z,7.31
2019-02-15T19:19:05.927Z,7.36
2019-02-15T19:21:36.443Z,7.33
2019-02-15T19:24:06.913Z,7.37
2019-02-15T19:26:37.394Z,7.40
2019-02-15T19:29:08.155Z,7.42
2019-02-15T19:31:38.681Z,7.44
2019-02-15T19:34:09.258Z,7.36
2019-02-15T19:36:39.716Z,7.42
2019-02-15T19:39:10.220Z,7.41
2019-02-15T19:41:40.792Z,6.70
2019-02-15T19:44:11.285Z,7.43
2019-02-15T19:46:41.783Z,7.44
2019-02-15T19:49:12.285Z,7.42
2019-02-15T19:51:42.789Z,7.25
2019-02-15T19:54:13.333Z,7.24
2019-02-15T19:56:43.852Z,7.21
2019-02-15T19:59:14.319Z,7.24
2019-02-15T20:01:44.834Z,7.29
2019-02-15T20:04:15.341Z,7.31
2019-02-15T20:06:45.804Z,7.28
2019-02-15T20:09:16.320Z,7.34
2019-02-15T20:11:47.068Z,7.36
2019-02-15T20:14:17.602Z,7.38
2019-02-15T20:16:48.058Z,7.41
2019-02-15T20:19:18.519Z,7.41
2019-02-15T20:21:49.092Z,7.37
2019-02-15T20:24:19.588Z,7.36
2019-02-15T20:26:50.049Z,7.31
2019-02-15T20:29:20.520Z,7.36
2019-02-15T20:31:50.984Z,7.36
2019-02-15T20:34:21.485Z,7.36
2019-02-15T20:36:52.029Z,7.29
2019-02-15T20:39:22.487Z,7.24
2019-02-15T20:41:52.977Z,7.22
2019-02-15T20:44:23.425Z,7.26
2019-02-15T20:46:53.927Z,6.93
2019-02-15T20:49:24.434Z,7.21
2019-02-15T20:51:54.898Z,7.21
2019-02-15T20:54:25.392Z,7.16
2019-02-15T20:56:55.906Z,7.14
2019-02-15T20:59:26.415Z,7.11
2019-02-15T21:01:56.945Z,7.09
2019-02-15T21:04:27.402Z,7.14
2019-02-15T21:06:57.924Z,7.16
2019-02-15T21:09:28.441Z,7.16
2019-02-15T21:11:58.955Z,7.15
2019-02-15T21:14:29.430Z,7.13
2019-02-15T21:16:59.946Z,7.13
2019-02-15T21:19:30.452Z,6.39
2019-02-15T21:22:00.923Z,7.11
2019-02-15T21:24:31.417Z,7.10
2019-02-15T21:27:01.862Z,7.07
2019-02-15T21:29:32.376Z,7.07
2019-02-15T21:32:02.979Z,7.08
2019-02-15T21:34:33.518Z,7.08
2019-02-15T21:37:03.974Z,7.10
2019-02-15T21:39:34.430Z,7.08
2019-02-15T21:42:04.923Z,6.40
2019-02-15T21:44:35.376Z,7.09
2019-02-15T21:47:05.876Z,7.11
2019-02-15T21:49:38.397Z,7.14
2019-02-15T21:52:08.614Z,7.11
2019-02-15T21:54:39.063Z,7.11
2019-02-15T21:57:09.671Z,7.13
2019-02-15T21:59:40.162Z,7.04
2019-02-15T22:02:10.771Z,7.05
2019-02-15T22:04:41.276Z,7.06
2019-02-15T22:07:11.820Z,7.11
2019-02-15T22:09:42.273Z,7.10
2019-02-15T22:12:12.733Z,7.12
2019-02-15T22:14:43.233Z,7.07
2019-02-15T22:17:13.676Z,6.89
2019-02-15T22:19:44.174Z,6.91
2019-02-15T22:22:14.605Z,6.84
2019-02-15T22:24:45.010Z,6.81
2019-02-15T22:27:15.512Z,6.78
2019-02-15T22:29:45.926Z,6.75
2019-02-15T22:32:16.429Z,6.79
2019-02-15T22:34:46.955Z,6.83
2019-02-15T22:37:17.408Z,6.86
2019-02-15T22:39:47.948Z,6.85
2019-02-15T22:42:18.415Z,6.89
2019-02-15T22:44:48.926Z,6.90
2019-02-15T22:47:19.380Z,6.81
2019-02-15T22:49:49.984Z,6.89
2019-02-15T22:52:20.489Z,6.89
2019-02-15T22:54:50.951Z,6.94
2019-02-15T22:57:21.409Z,6.95
2019-02-15T22:59:54.612Z,6.95
2019-02-15T23:02:24.007Z,6.97
2019-02-15T23:04:54.450Z,6.97
2019-02-15T23:07:24.858Z,6.98
2019-02-15T23:09:55.366Z,6.92
2019-02-15T23:12:25.840Z,6.97
2019-02-15T23:14:56.287Z,6.96
2019-02-15T23:17:26.738Z,6.97
2019-02-15T23:19:57.236Z,6.98
2019-02-15T23:22:27.707Z,6.99
2019-02-15T23:24:58.288Z,6.99
2019-02-15T23:27:28.785Z,7.00
2019-02-15T23:29:59.261Z,6.93
2019-02-15T23:32:29.768Z,6.87
2019-02-15T23:35:00.324Z,6.91
2019-02-15T23:37:30.803Z,6.94
2019-02-15T23:40:01.310Z,6.94
2019-02-15T23:42:31.823Z,6.94
2019-02-15T23:45:02.322Z,6.91
2019-02-15T23:47:32.782Z,6.94
2019-02-15T23:50:03.243Z,6.96
2019-02-15T23:52:33.751Z,6.96
2019-02-15T23:55:04.311Z,6.95
2019-02-15T23:57:34.808Z,6.96
